Time;durP1;ratioP1;P1;durP2;ratioP2;P2;SDS_P1;SDS_P2;PMS_P1;PMS_P2;Temp;Humidity;BMP_temperature;BMP_pressure;BME280_temperature;BME280_humidity;BME280_pressure;Samples;Min_cycle;Max_cycle;Signal;HPM_P1;HPM_P2
2021/08/29 00:02:43;;;;;;;28.30;21.20;;;;;;;9.69;74.80;99293.80;472744;1194;141195;-61
2021/08/29 00:12:46;;;;;;;27.30;22.10;;;;;;;9.73;75.19;99286.05;470610;1194;141601;-61
2021/08/29 00:22:49;;;;;;;25.40;20.40;;;;;;;9.78;75.37;99283.08;471978;1191;142420;-60
2021/08/29 00:32:53;;;;;;;26.80;18.90;;;;;;;9.79;75.08;99282.27;468667;1194;141196;-62
2021/08/29 00:42:57;;;;;;;29.90;21.60;;;;;;;9.85;75.14;99273.51;465890;1194;141412;-59
2021/08/29 00:53:03;;;;;;;26.60;18.60;;;;;;;9.95;75.22;99272.70;455662;1195;142314;-59
2021/08/29 01:03:09;;;;;;;26.10;19.30;;;;;;;10.02;75.53;99278.71;469118;1194;141795;-61
2021/08/29 01:13:19;;;;;;;26.30;20.00;;;;;;;10.03;75.53;99285.98;470808;1194;141494;-61
2021/08/29 01:23:23;;;;;;;22.30;17.40;;;;;;;10.08;75.40;99286.66;472078;1194;141732;-61
2021/08/29 01:33:26;;;;;;;20.60;16.50;;;;;;;10.12;75.19;99286.63;472908;1182;142494;-61
2021/08/29 01:43:30;;;;;;;19.50;16.40;;;;;;;10.12;75.40;99275.56;472867;1194;142297;-62
2021/08/29 01:53:35;;;;;;;20.30;18.10;;;;;;;10.04;75.31;99274.91;471201;1194;142477;-61
2021/08/29 02:03:40;;;;;;;21.90;16.90;;;;;;;9.99;75.43;99265.64;472792;1194;142051;-63
2021/08/29 02:13:45;;;;;;;20.40;17.40;;;;;;;9.91;75.57;99256.48;472092;1194;141140;-60
2021/08/29 02:23:48;;;;;;;21.00;15.90;;;;;;;9.84;75.91;99254.87;472979;1194;141873;-61
2021/08/29 02:33:52;;;;;;;19.80;13.40;;;;;;;9.75;76.10;99247.61;471952;1195;141185;-62
2021/08/29 02:43:56;;;;;;;16.90;13.60;;;;;;;9.63;76.50;99241.70;472091;1194;141819;-62
2021/08/29 02:54:00;;;;;;;15.20;13.50;;;;;;;9.53;76.82;99226.82;472902;1195;141424;-62
2021/08/29 03:04:04;;;;;;;22.50;13.50;;;;;;;9.34;76.60;99216.51;472825;1195;144992;-61
2021/08/29 03:14:08;;;;;;;16.60;13.20;;;;;;;9.23;76.89;99220.18;472231;1182;143430;-61
2021/08/29 03:24:14;;;;;;;15.20;13.10;;;;;;;9.07;76.56;99218.91;472840;1193;141934;-62
2021/08/29 03:34:18;;;;;;;19.20;13.60;;;;;;;8.92;76.61;99217.05;472835;1194;142258;-62
2021/08/29 03:44:23;;;;;;;16.10;12.40;;;;;;;8.79;76.47;99210.90;471929;1190;141120;-62
2021/08/29 03:54:26;;;;;;;17.20;13.60;;;;;;;8.75;76.82;99207.85;472963;1192;141220;-62
2021/08/29 04:04:31;;;;;;;18.60;12.40;;;;;;;8.72;76.80;99219.38;472918;1194;141419;-62
2021/08/29 04:14:37;;;;;;;16.40;12.40;;;;;;;8.71;76.83;99223.27;472052;1195;141792;-62
2021/08/29 04:24:41;;;;;;;20.80;13.10;;;;;;;8.79;77.02;99222.05;466128;1195;141882;-60
2021/08/29 04:34:45;;;;;;;16.60;12.50;;;;;;;8.94;76.96;99222.90;456196;1195;141137;-60
2021/08/29 04:44:48;;;;;;;14.00;11.40;;;;;;;9.23;76.80;99224.55;463598;1195;140753;-61
2021/08/29 04:54:52;;;;;;;15.40;13.10;;;;;;;9.71;76.14;99221.66;472828;1194;141457;-61
2021/08/29 05:04:59;;;;;;;20.10;14.40;;;;;;;10.29;75.60;99240.67;471678;1195;141688;-61
2021/08/29 05:15:02;;;;;;;17.90;15.40;;;;;;;10.95;75.52;99250.00;472480;1195;141856;-61
2021/08/29 05:25:08;;;;;;;20.70;13.60;;;;;;;12.47;75.35;99234.63;470896;1194;141417;-60
2021/08/29 05:35:12;;;;;;;15.30;12.50;;;;;;;16.08;70.44;99226.78;471735;1195;141917;-63
2021/08/29 05:45:15;;;;;;;14.00;12.50;;;;;;;16.21;67.92;99239.27;462054;1194;144938;-60
2021/08/29 05:55:19;;;;;;;15.00;12.20;;;;;;;17.64;66.21;99229.65;460977;1195;141848;-61
2021/08/29 06:05:28;;;;;;;16.60;13.10;;;;;;;19.81;62.61;99221.02;464392;1194;142080;-61
2021/08/29 06:15:31;;;;;;;13.20;11.90;;;;;;;19.93;60.37;99217.25;461857;1195;140913;-61
2021/08/29 06:25:34;;;;;;;13.80;12.50;;;;;;;20.40;59.76;99208.48;470449;1194;142101;-63
2021/08/29 06:36:19;;;;;;;12.40;11.00;;;;;;;22.71;57.33;99211.14;472805;1194;141377;-62
2021/08/29 06:46:22;;;;;;;13.30;11.40;;;;;;;25.18;53.19;99206.89;472860;1194;140460;-61
2021/08/29 06:56:25;;;;;;;12.90;11.70;;;;;;;25.77;50.85;99201.86;472048;1194;140650;-62
2021/08/29 07:06:29;;;;;;;11.30;10.20;;;;;;;26.36;48.56;99197.80;469753;1194;141760;-60
2021/08/29 07:16:32;;;;;;;12.00;10.90;;;;;;;26.25;47.91;99191.14;470985;1193;140502;-61
2021/08/29 07:26:36;;;;;;;11.00;9.90;;;;;;;26.80;46.92;99190.45;472035;1194;142833;-63
2021/08/29 07:36:39;;;;;;;11.20;10.30;;;;;;;27.40;45.74;99191.80;472893;1190;142012;-63
2021/08/29 07:46:42;;;;;;;10.40;9.50;;;;;;;27.49;44.50;99195.48;471979;1194;141374;-62
2021/08/29 07:56:45;;;;;;;10.70;9.70;;;;;;;26.54;44.72;99200.47;472693;1193;141997;-62
2021/08/29 08:06:48;;;;;;;9.30;7.80;;;;;;;26.11;45.36;99194.52;472234;1194;141095;-63
2021/08/29 08:16:51;;;;;;;7.20;6.60;;;;;;;26.96;44.31;99192.45;468052;1194;141584;-61
2021/08/29 08:26:55;;;;;;;8.10;6.40;;;;;;;27.08;43.66;99197.53;472359;1194;140616;-65
2021/08/29 08:36:58;;;;;;;8.30;6.00;;;;;;;28.14;42.30;99193.36;457171;1194;140572;-62
2021/08/29 08:47:07;;;;;;;5.20;4.60;;;;;;;27.88;40.87;99194.77;460913;1194;142308;-62
2021/08/29 08:57:10;;;;;;;5.50;4.90;;;;;;;26.25;41.17;99192.20;472588;1194;140618;-63
2021/08/29 09:07:13;;;;;;;6.70;6.20;;;;;;;25.48;42.52;99190.61;456396;1194;20003876;-62
2021/08/29 09:17:24;;;;;;;7.90;6.30;;;;;;;25.58;42.71;99178.67;471612;1194;140948;-62
2021/08/29 09:27:28;;;;;;;6.40;5.70;;;;;;;25.71;42.34;99174.91;472429;1183;141328;-61
2021/08/29 09:37:35;;;;;;;7.00;6.40;;;;;;;25.45;42.68;99173.16;469227;1190;140571;-63
2021/08/29 09:47:38;;;;;;;;;;;;;;;25.48;42.82;99171.88;471544;1194;141478;-60
2021/08/29 09:57:41;;;;;;;6.60;5.10;;;;;;;24.91;43.27;99164.29;460967;1194;126813;-61
2021/08/29 10:07:57;;;;;;;6.80;6.30;;;;;;;23.78;44.18;99157.95;459101;1194;140651;-62
2021/08/29 10:18:02;;;;;;;7.60;6.20;;;;;;;22.57;45.57;99161.73;458499;1194;140042;-61
2021/08/29 10:28:12;;;;;;;7.60;6.80;;;;;;;21.72;47.02;99169.81;471455;1194;143404;-61
2021/08/29 10:38:16;;;;;;;5.90;5.40;;;;;;;21.53;48.10;99173.06;467629;1194;140916;-62
2021/08/29 10:48:20;;;;;;;6.60;5.90;;;;;;;21.60;48.10;99176.63;462790;1194;191018;-60
2021/08/29 10:58:23;;;;;;;6.40;5.60;;;;;;;21.51;48.03;99175.70;465714;1191;141308;-62
2021/08/29 11:08:28;;;;;;;6.50;6.00;;;;;;;21.29;48.61;99173.96;472043;1194;141130;-61
2021/08/29 11:19:11;;;;;;;8.30;7.60;;;;;;;21.12;49.25;99176.55;472842;1194;140026;-61
2021/08/29 11:29:50;;;;;;;9.20;8.30;;;;;;;20.61;51.05;99173.71;471815;1194;145211;-62
2021/08/29 11:40:02;;;;;;;7.90;7.20;;;;;;;20.36;53.05;99177.91;472701;1194;140085;-62
2021/08/29 11:50:07;;;;;;;8.50;7.60;;;;;;;20.62;52.98;99164.98;471588;1194;141401;-62
2021/08/29 12:00:13;;;;;;;9.10;8.30;;;;;;;20.34;53.18;99162.00;472611;1194;140346;-63
2021/08/29 12:10:18;;;;;;;7.70;7.00;;;;;;;20.11;53.61;99150.34;472720;1194;140501;-62
2021/08/29 12:20:22;;;;;;;8.90;8.10;;;;;;;20.17;53.25;99153.91;465868;1194;140057;-60
2021/08/29 12:30:31;;;;;;;11.20;7.40;;;;;;;20.43;52.63;99155.14;472784;1194;140671;-62
2021/08/29 12:40:35;;;;;;;9.30;6.60;;;;;;;20.51;51.96;99148.96;472888;1193;140568;-62
2021/08/29 12:50:46;;;;;;;8.20;6.40;;;;;;;20.77;51.65;99142.09;472843;1194;143881;-62
2021/08/29 13:00:56;;;;;;;6.90;6.30;;;;;;;20.86;50.84;99139.66;472803;1194;140486;-62
2021/08/29 13:11:01;;;;;;;5.50;4.90;;;;;;;20.55;50.49;99131.07;471973;1194;143691;-62
2021/08/29 13:21:24;;;;;;;5.90;5.30;;;;;;;20.30;50.09;99124.33;470860;1194;140336;-61
2021/08/29 13:31:30;;;;;;;7.70;6.80;;;;;;;20.27;50.52;99126.08;472904;1194;141959;-63
2021/08/29 13:41:33;;;;;;;7.80;7.20;;;;;;;20.34;50.70;99127.75;470470;1183;141115;-62
2021/08/29 13:51:37;;;;;;;9.80;8.90;;;;;;;20.35;51.02;99125.00;471933;1194;140855;-62
2021/08/29 14:01:40;;;;;;;8.10;7.30;;;;;;;20.57;50.83;99128.89;460196;1194;142240;-61
2021/08/29 14:11:44;;;;;;;9.00;8.20;;;;;;;20.76;50.81;99123.39;472274;1194;140684;-61
2021/08/29 14:21:55;;;;;;;8.60;7.80;;;;;;;20.93;50.33;99120.54;472812;1194;140489;-63
2021/08/29 14:31:59;;;;;;;7.80;7.20;;;;;;;21.05;50.25;99116.35;462291;1194;141232;-63
2021/08/29 14:42:04;;;;;;;8.50;7.10;;;;;;;20.94;49.88;99117.42;467365;1194;141093;-59
2021/08/29 14:52:07;;;;;;;9.60;7.70;;;;;;;20.92;49.72;99115.22;464671;1194;10001172;-69
2021/08/29 15:02:10;;;;;;;8.40;7.60;;;;;;;20.79;49.81;99116.33;472072;1194;141322;-62
2021/08/29 15:12:14;;;;;;;8.70;7.90;;;;;;;20.65;50.29;99110.37;465715;1194;140079;-60
2021/08/29 15:22:18;;;;;;;10.60;7.90;;;;;;;20.57;50.71;99108.27;472930;1194;140232;-60
2021/08/29 15:32:21;;;;;;;8.00;7.40;;;;;;;20.15;50.53;99101.92;472073;1194;140880;-60
2021/08/29 15:42:24;;;;;;;8.30;7.00;;;;;;;19.94;50.92;99099.98;472972;1194;142436;-60
2021/08/29 15:52:27;;;;;;;5.80;5.30;;;;;;;19.90;51.17;99093.25;472921;1193;141650;-61
2021/08/29 16:02:31;;;;;;;7.20;6.50;;;;;;;19.84;51.11;99092.48;468959;1193;140456;-61
2021/08/29 16:12:34;;;;;;;7.80;7.20;;;;;;;19.64;51.52;99094.88;472929;1194;140950;-60
2021/08/29 16:22:38;;;;;;;7.10;6.40;;;;;;;19.32;52.91;99101.75;472359;1195;141177;-58
2021/08/29 16:32:43;;;;;;;8.50;7.40;;;;;;;19.07;54.07;99107.82;469784;1194;140359;-62
2021/08/29 16:42:47;;;;;;;7.60;7.00;;;;;;;18.75;54.75;99112.52;473035;1192;141764;-62
2021/08/29 16:52:50;;;;;;;7.30;6.60;;;;;;;18.43;55.04;99118.86;463908;1194;10001968;-61
2021/08/29 17:02:54;;;;;;;6.00;5.40;;;;;;;18.07;54.70;99116.70;461528;1195;140441;-60
2021/08/29 17:12:58;;;;;;;7.90;4.70;;;;;;;17.77;54.75;99119.97;461404;1195;142536;-61
2021/08/29 17:23:02;;;;;;;5.40;4.90;;;;;;;17.45;54.86;99132.30;464258;1194;140502;-63
2021/08/29 17:33:05;;;;;;;7.80;4.90;;;;;;;17.14;55.35;99127.08;455952;1198;141233;-59
2021/08/29 17:43:08;;;;;;;8.90;6.80;;;;;;;16.90;57.09;99126.95;456201;1195;140875;-60
2021/08/29 17:53:13;;;;;;;8.00;7.20;;;;;;;16.59;57.67;99133.27;455528;1199;140465;-59
2021/08/29 18:03:16;;;;;;;10.30;6.80;;;;;;;16.34;58.84;99136.69;472390;1195;141462;-61
2021/08/29 18:13:20;;;;;;;12.50;7.50;;;;;;;16.05;60.86;99146.42;466215;1187;141223;-60
2021/08/29 18:23:28;;;;;;;13.50;7.20;;;;;;;15.67;61.98;99152.96;466353;1195;142238;-61
2021/08/29 18:33:31;;;;;;;7.20;6.50;;;;;;;15.21;63.31;99161.67;472814;1194;141272;-61
2021/08/29 18:43:35;;;;;;;9.50;8.10;;;;;;;14.78;64.46;99166.52;469727;1195;141539;-59
2021/08/29 18:53:39;;;;;;;13.20;8.30;;;;;;;14.42;65.51;99179.16;471894;1195;141325;-61
2021/08/29 19:03:43;;;;;;;14.60;13.00;;;;;;;14.06;66.07;99192.36;458692;1194;141975;-63
2021/08/29 19:13:47;;;;;;;16.80;15.00;;;;;;;13.78;66.98;99192.27;461219;1194;142738;-59
2021/08/29 19:23:51;;;;;;;17.50;15.80;;;;;;;13.61;67.75;99179.77;469691;1192;141629;-62
2021/08/29 19:33:54;;;;;;;14.40;12.90;;;;;;;13.48;68.35;99169.19;470670;1193;143247;-61
2021/08/29 19:43:57;;;;;;;18.40;16.00;;;;;;;13.33;68.76;99162.35;471596;1194;143193;-60
2021/08/29 19:54:00;;;;;;;18.10;14.90;;;;;;;13.24;69.48;99172.20;472626;1182;142114;-60
2021/08/29 20:04:09;;;;;;;17.70;14.40;;;;;;;13.25;69.85;99172.85;472355;1194;141904;-60
2021/08/29 20:14:12;;;;;;;20.60;14.30;;;;;;;13.28;70.06;99164.00;471063;1194;141566;-60
2021/08/29 20:24:15;;;;;;;19.90;15.00;;;;;;;13.23;70.36;99160.54;468310;1194;141965;-61
2021/08/29 20:34:19;;;;;;;16.80;14.40;;;;;;;13.12;70.78;99151.70;471609;1194;142375;-59
2021/08/29 20:44:22;;;;;;;17.90;14.70;;;;;;;13.12;70.98;99149.95;455202;1194;141402;-58
2021/08/29 20:54:26;;;;;;;20.40;16.20;;;;;;;13.04;71.13;99138.13;472674;1194;141607;-61
2021/08/29 21:04:29;;;;;;;15.90;14.20;;;;;;;13.06;71.71;99140.61;472787;1193;141112;-61
2021/08/29 21:14:33;;;;;;;25.60;19.20;;;;;;;13.00;71.78;99126.50;465262;1194;144968;-61
2021/08/29 21:24:36;;;;;;;26.60;19.30;;;;;;;12.93;71.51;99121.61;472650;1194;143262;-61
2021/08/29 21:34:39;;;;;;;23.70;15.30;;;;;;;12.85;71.98;99126.66;471921;1193;164807;-59
2021/08/29 21:44:42;;;;;;;19.70;17.10;;;;;;;12.79;72.30;99130.69;464140;1194;140741;-61
2021/08/29 21:54:45;;;;;;;17.50;15.60;;;;;;;12.70;72.72;99136.81;464217;1194;141120;-59
2021/08/29 22:04:48;;;;;;;19.10;15.50;;;;;;;12.64;73.09;99133.98;463865;1194;141788;-61
2021/08/29 22:14:51;;;;;;;18.00;16.20;;;;;;;12.57;73.40;99135.39;463782;1194;142353;-60
2021/08/29 22:24:54;;;;;;;17.00;15.10;;;;;;;12.50;73.58;99138.91;464379;1194;141525;-60
2021/08/29 22:34:58;;;;;;;18.40;16.60;;;;;;;12.46;73.66;99137.64;465666;1194;182011;-60
2021/08/29 22:45:02;;;;;;;22.40;18.90;;;;;;;12.45;74.05;99134.23;472326;1194;142070;-60
2021/08/29 22:55:07;;;;;;;19.60;17.60;;;;;;;12.48;74.22;99124.02;468686;1190;145521;-62
2021/08/29 23:05:10;;;;;;;22.00;19.90;;;;;;;12.37;74.27;99109.06;459102;1194;142445;-61
2021/08/29 23:15:14;;;;;;;22.00;19.90;;;;;;;12.17;74.70;99111.63;463194;1194;141795;-63
2021/08/29 23:25:17;;;;;;;20.50;17.60;;;;;;;11.94;75.20;99104.98;458801;1194;141128;-60
2021/08/29 23:35:20;;;;;;;24.40;21.70;;;;;;;11.73;75.47;99100.30;465011;1194;145209;-60
2021/08/29 23:45:25;;;;;;;24.80;20.50;;;;;;;11.53;75.77;99099.69;463987;1194;142330;-61
2021/08/29 23:55:29;;;;;;;20.60;17.70;;;;;;;11.42;75.96;99102.77;468211;1190;141691;-60
